Time;durP1;ratioP1;P1;durP2;ratioP2;P2;SDS_P1;SDS_P2;PMS_P1;PMS_P2;Temp;Humidity;BMP_temperature;BMP_pressure;BME280_temperature;BME280_humidity;BME280_pressure;Samples;Min_cycle;Max_cycle;Signal;HPM_P1;HPM_P2
2023/09/15 00:00:44;;;;;;;16.65;3.70;;;;;;;;;;6288412;22;20000;-52
2023/09/15 00:03:12;;;;;;;18.88;7.80;;;;;;;;;;6288106;22;20057;-52
2023/09/15 00:05:39;;;;;;;56.58;8.63;;;;;;;;;;6288557;22;20022;-52
2023/09/15 00:08:06;;;;;;;49.28;8.27;;;;;;;;;;6288302;22;20033;-55
2023/09/15 00:10:34;;;;;;;55.00;9.30;;;;;;;;;;6288200;22;19996;-55
2023/09/15 00:13:02;;;;;;;37.55;6.35;;;;;;;;;;6288240;22;20318;-55
2023/09/15 00:15:28;;;;;;;35.60;6.00;;;;;;;;;;6288148;22;20184;-61
2023/09/15 00:17:56;;;;;;;26.52;5.22;;;;;;;;;;6287970;22;20183;-58
2023/09/15 00:20:25;;;;;;;17.17;3.70;;;;;;;;;;6288009;22;20011;-58
2023/09/15 00:22:52;;;;;;;8.15;3.08;;;;;;;;;;6288113;22;20203;-58
2023/09/15 00:25:20;;;;;;;11.30;3.25;;;;;;;;;;6287980;22;20053;-58
2023/09/15 00:27:51;;;;;;;9.88;3.25;;;;;;;;;;6288189;22;20020;-56
2023/09/15 00:30:19;;;;;;;6.95;3.25;;;;;;;;;;6287986;22;20062;-60
2023/09/15 00:32:48;;;;;;;9.80;3.05;;;;;;;;;;6287934;22;20003;-59
2023/09/15 00:35:18;;;;;;;10.55;3.72;;;;;;;;;;6287967;22;20004;-56
2023/09/15 00:37:46;;;;;;;24.98;5.13;;;;;;;;;;6288039;22;19988;-58
2023/09/15 00:40:14;;;;;;;19.92;4.35;;;;;;;;;;6287700;22;20004;-58
2023/09/15 00:42:45;;;;;;;21.88;5.15;;;;;;;;;;6287965;22;19996;-53
2023/09/15 00:45:15;;;;;;;19.20;7.65;;;;;;;;;;6287894;22;20276;-56
2023/09/15 00:47:50;;;;;;;25.50;7.70;;;;;;;;;;6288010;22;20040;-53
2023/09/15 00:50:18;;;;;;;13.45;5.63;;;;;;;;;;6287684;22;20004;-53
2023/09/15 00:52:51;;;;;;;11.43;5.05;;;;;;;;;;6287663;22;19992;-53
2023/09/15 00:55:22;;;;;;;14.27;5.10;;;;;;;;;;6287823;22;20303;-53
2023/09/15 00:57:51;;;;;;;12.10;4.85;;;;;;;;;;6287893;22;20191;-54
2023/09/15 01:00:19;;;;;;;12.18;5.07;;;;;;;;;;6260803;22;20056;-55
2023/09/15 01:02:46;;;;;;;10.48;3.97;;;;;;;;;;6287776;22;19988;-54
2023/09/15 01:05:19;;;;;;;8.30;4.93;;;;;;;;;;6287747;22;20018;-56
2023/09/15 01:07:48;;;;;;;8.93;6.28;;;;;;;;;;6287791;22;20322;-55
2023/09/15 01:10:15;;;;;;;9.98;4.95;;;;;;;;;;6286683;22;20049;-57
2023/09/15 01:12:43;;;;;;;7.03;3.90;;;;;;;;;;6286040;22;20010;-57
2023/09/15 01:15:10;;;;;;;5.32;3.30;;;;;;;;;;6287637;22;20284;-55
2023/09/15 01:17:43;;;;;;;4.90;3.40;;;;;;;;;;6287565;22;20090;-54
2023/09/15 01:20:13;;;;;;;4.43;3.08;;;;;;;;;;6286631;22;20299;-57
2023/09/15 01:22:56;;;;;;;7.78;3.58;;;;;;;;;;6287564;22;19995;-54
2023/09/15 01:25:34;;;;;;;7.32;3.80;;;;;;;;;;6287390;22;20015;-57
2023/09/15 01:28:22;;;;;;;4.57;3.65;;;;;;;;;;6287503;22;20002;-54
2023/09/15 01:30:51;;;;;;;5.00;3.92;;;;;;;;;;6286609;22;20012;-58
2023/09/15 01:33:19;;;;;;;9.52;4.40;;;;;;;;;;6286919;22;20007;-57
2023/09/15 01:35:46;;;;;;;12.05;5.30;;;;;;;;;;6286491;22;20012;-56
2023/09/15 01:38:12;;;;;;;5.65;4.20;;;;;;;;;;6285324;22;20015;-57
2023/09/15 01:40:39;;;;;;;6.25;4.18;;;;;;;;;;6287366;22;20157;-57
2023/09/15 01:43:06;;;;;;;12.43;4.13;;;;;;;;;;6285896;22;19999;-59
2023/09/15 01:45:32;;;;;;;13.07;3.95;;;;;;;;;;6287276;22;19992;-57
2023/09/15 01:47:59;;;;;;;8.30;4.38;;;;;;;;;;6287060;22;20071;-57
2023/09/15 01:50:26;;;;;;;5.43;3.97;;;;;;;;;;6287079;22;20069;-57
2023/09/15 01:52:53;;;;;;;6.20;3.47;;;;;;;;;;6287115;22;20045;-59
2023/09/15 01:55:20;;;;;;;5.88;3.28;;;;;;;;;;6287276;22;20280;-58
2023/09/15 01:57:47;;;;;;;87.57;13.30;;;;;;;;;;6285145;22;20320;-54
2023/09/15 02:00:14;;;;;;;79.43;8.77;;;;;;;;;;6284926;22;20055;-56
2023/09/15 02:02:41;;;;;;;74.95;9.38;;;;;;;;;;6286459;22;19999;-58
2023/09/15 02:05:08;;;;;;;53.75;7.10;;;;;;;;;;6286749;22;20076;-57
2023/09/15 02:07:36;;;;;;;79.32;9.20;;;;;;;;;;6286925;22;20340;-56
2023/09/15 02:10:03;;;;;;;80.20;9.23;;;;;;;;;;6286582;22;20003;-56
2023/09/15 02:12:30;;;;;;;124.57;12.10;;;;;;;;;;6286879;22;20059;-62
2023/09/15 02:14:57;;;;;;;83.20;10.13;;;;;;;;;;6286306;22;20284;-57
2023/09/15 02:17:24;;;;;;;75.07;8.13;;;;;;;;;;6286881;22;20030;-57
2023/09/15 02:19:50;;;;;;;43.42;6.68;;;;;;;;;;6286825;22;20003;-56
2023/09/15 02:22:18;;;;;;;27.05;4.60;;;;;;;;;;6286739;22;19996;-56
2023/09/15 02:24:44;;;;;;;14.23;3.85;;;;;;;;;;6286829;22;20355;-55
2023/09/15 02:27:11;;;;;;;6.55;3.08;;;;;;;;;;6287807;22;20253;-58
2023/09/15 02:29:38;;;;;;;5.13;3.10;;;;;;;;;;6286624;22;20014;-55
2023/09/15 02:32:08;;;;;;;5.97;3.28;;;;;;;;;;6286908;22;20292;-65
2023/09/15 02:34:35;;;;;;;5.47;3.10;;;;;;;;;;6286944;22;20027;-57
2023/09/15 02:37:03;;;;;;;8.73;3.13;;;;;;;;;;6286611;22;20057;-56
2023/09/15 02:39:29;;;;;;;6.47;2.60;;;;;;;;;;6286150;22;20051;-50
2023/09/15 02:41:56;;;;;;;27.52;18.38;;;;;;;;;;6286657;22;20353;-47
2023/09/15 02:44:23;;;;;;;30.95;21.30;;;;;;;;;;6286406;22;19992;-46
2023/09/15 02:46:50;;;;;;;19.30;13.18;;;;;;;;;;6287422;22;20193;-48
2023/09/15 02:49:17;;;;;;;13.07;9.65;;;;;;;;;;6286814;22;20003;-46
2023/09/15 02:51:43;;;;;;;11.07;7.22;;;;;;;;;;6284777;22;20298;-50
2023/09/15 02:54:10;;;;;;;9.02;5.97;;;;;;;;;;6285301;22;20003;-46
2023/09/15 02:56:37;;;;;;;8.65;5.50;;;;;;;;;;6287142;22;20004;-47
2023/09/15 02:59:04;;;;;;;7.97;5.10;;;;;;;;;;6286510;22;19995;-50
2023/09/15 03:01:31;;;;;;;5.78;4.20;;;;;;;;;;6286921;22;20003;-50
2023/09/15 03:03:58;;;;;;;6.72;4.22;;;;;;;;;;6286218;22;20061;-51
2023/09/15 03:06:24;;;;;;;6.90;4.18;;;;;;;;;;6286970;22;20168;-48
2023/09/15 03:08:51;;;;;;;28.60;25.70;;;;;;;;;;6286161;22;19996;-48
2023/09/15 03:11:18;;;;;;;14.57;13.07;;;;;;;;;;6287024;22;20031;-55
2023/09/15 03:13:45;;;;;;;9.82;6.57;;;;;;;;;;6286725;22;19992;-57
2023/09/15 03:16:12;;;;;;;7.07;5.60;;;;;;;;;;6288965;22;20010;-52
2023/09/15 03:18:39;;;;;;;11.23;4.95;;;;;;;;;;6288213;22;20003;-48
2023/09/15 03:21:06;;;;;;;8.15;4.10;;;;;;;;;;6260844;22;20023;-54
2023/09/15 03:23:33;;;;;;;5.05;3.50;;;;;;;;;;6288151;22;20022;-54
2023/09/15 03:26:03;;;;;;;7.57;3.40;;;;;;;;;;6288873;22;20035;-56
2023/09/15 03:28:32;;;;;;;5.63;3.05;;;;;;;;;;6288536;22;19987;-58
2023/09/15 03:30:59;;;;;;;5.55;3.03;;;;;;;;;;6261341;22;20023;-60
2023/09/15 03:33:27;;;;;;;5.90;2.92;;;;;;;;;;6288660;22;20010;-53
2023/09/15 03:35:54;;;;;;;5.75;3.10;;;;;;;;;;6287645;22;20052;-53
2023/09/15 03:38:21;;;;;;;4.57;2.78;;;;;;;;;;6288527;22;20006;-56
2023/09/15 03:40:48;;;;;;;5.13;2.50;;;;;;;;;;6288334;22;20007;-48
2023/09/15 03:43:14;;;;;;;4.60;2.78;;;;;;;;;;6288364;22;19987;-51
2023/09/15 03:45:44;;;;;;;3.42;2.50;;;;;;;;;;6288729;22;19999;-47
2023/09/15 03:48:10;;;;;;;3.13;2.50;;;;;;;;;;6287340;22;20008;-53
2023/09/15 03:50:37;;;;;;;4.03;2.63;;;;;;;;;;6287854;22;19996;-51
2023/09/15 03:53:04;;;;;;;3.20;2.50;;;;;;;;;;6288410;22;19999;-49
2023/09/15 03:55:30;;;;;;;5.68;2.63;;;;;;;;;;6288647;22;20326;-51
2023/09/15 03:57:57;;;;;;;7.90;2.80;;;;;;;;;;6287625;22;19992;-59
2023/09/15 04:00:24;;;;;;;4.35;2.72;;;;;;;;;;6287915;22;20004;-51
2023/09/15 04:02:50;;;;;;;6.90;2.78;;;;;;;;;;6288404;22;20007;-52
2023/09/15 04:05:18;;;;;;;3.25;2.30;;;;;;;;;;6288210;22;20172;-53
2023/09/15 04:07:45;;;;;;;5.03;2.50;;;;;;;;;;6287865;22;20022;-51
2023/09/15 04:10:12;;;;;;;4.93;2.50;;;;;;;;;;6288189;22;20030;-54
2023/09/15 04:12:41;;;;;;;6.25;2.75;;;;;;;;;;6288102;22;19995;-52
2023/09/15 04:15:10;;;;;;;7.55;2.75;;;;;;;;;;6288127;22;20000;-54
2023/09/15 04:17:38;;;;;;;5.53;2.33;;;;;;;;;;6288265;22;20004;-54
2023/09/15 04:20:08;;;;;;;6.00;2.55;;;;;;;;;;6286774;22;19991;-52
2023/09/15 04:22:35;;;;;;;4.97;2.58;;;;;;;;;;6288045;22;20061;-52
2023/09/15 04:25:02;;;;;;;5.00;2.17;;;;;;;;;;6287759;22;20295;-51
2023/09/15 04:27:29;;;;;;;7.47;2.50;;;;;;;;;;6288000;22;20011;-51
2023/09/15 04:29:56;;;;;;;4.53;2.60;;;;;;;;;;6287817;22;20016;-51
2023/09/15 04:32:23;;;;;;;7.72;2.30;;;;;;;;;;6288005;22;20055;-51
2023/09/15 04:34:51;;;;;;;26.98;3.03;;;;;;;;;;6287896;22;20011;-49
2023/09/15 04:37:17;;;;;;;12.98;2.40;;;;;;;;;;6287946;22;20003;-54
2023/09/15 04:39:44;;;;;;;3.88;2.28;;;;;;;;;;6287895;22;20004;-53
2023/09/15 04:42:12;;;;;;;8.98;1.95;;;;;;;;;;6288437;22;20050;-51
2023/09/15 04:44:39;;;;;;;4.85;2.47;;;;;;;;;;6288008;22;20003;-53
2023/09/15 04:47:05;;;;;;;4.82;2.00;;;;;;;;;;6288379;22;20025;-52
2023/09/15 04:49:32;;;;;;;5.72;2.00;;;;;;;;;;6287576;22;20005;-53
2023/09/15 04:51:59;;;;;;;3.05;1.98;;;;;;;;;;6287761;22;20024;-53
2023/09/15 04:54:26;;;;;;;3.75;2.40;;;;;;;;;;6287943;22;20023;-56
2023/09/15 04:56:54;;;;;;;3.67;2.00;;;;;;;;;;6286505;22;20015;-51
2023/09/15 04:59:20;;;;;;;3.92;2.22;;;;;;;;;;6287300;22;20041;-51
2023/09/15 05:01:48;;;;;;;3.58;1.70;;;;;;;;;;6287022;22;20088;-49
2023/09/15 05:04:15;;;;;;;3.67;1.92;;;;;;;;;;6287470;22;19987;-47
2023/09/15 05:06:42;;;;;;;3.55;2.05;;;;;;;;;;6287371;22;20003;-46
2023/09/15 05:09:11;;;;;;;8.57;2.00;;;;;;;;;;6287070;22;20027;-51
2023/09/15 05:11:38;;;;;;;4.68;2.00;;;;;;;;;;6286440;22;19992;-49
2023/09/15 05:14:06;;;;;;;2.30;1.95;;;;;;;;;;6284746;22;19996;-55
2023/09/15 05:16:33;;;;;;;3.28;2.05;;;;;;;;;;6286660;22;20003;-47
2023/09/15 05:19:00;;;;;;;3.55;1.92;;;;;;;;;;6286605;22;19988;-50
2023/09/15 05:21:27;;;;;;;3.75;2.08;;;;;;;;;;6286417;22;20268;-53
2023/09/15 05:23:53;;;;;;;7.93;2.00;;;;;;;;;;6287523;22;20227;-47
2023/09/15 05:26:20;;;;;;;4.05;2.00;;;;;;;;;;6287154;22;19996;-58
2023/09/15 05:28:47;;;;;;;7.32;2.67;;;;;;;;;;6287579;22;20058;-46
2023/09/15 05:31:13;;;;;;;6.00;2.50;;;;;;;;;;6285363;22;20022;-47
2023/09/15 05:33:40;;;;;;;3.55;2.10;;;;;;;;;;6284989;22;20067;-50
2023/09/15 05:36:07;;;;;;;3.03;2.08;;;;;;;;;;6287616;22;20346;-46
2023/09/15 05:38:33;;;;;;;6.97;2.10;;;;;;;;;;6287130;22;20049;-47
2023/09/15 05:41:00;;;;;;;4.50;2.38;;;;;;;;;;6287525;22;20038;-47
2023/09/15 05:43:26;;;;;;;4.97;1.95;;;;;;;;;;6287320;22;20003;-48
2023/09/15 05:45:55;;;;;;;4.95;2.53;;;;;;;;;;6287669;22;20010;-47
2023/09/15 05:48:23;;;;;;;5.10;2.10;;;;;;;;;;6287367;22;20156;-50
2023/09/15 05:50:50;;;;;;;4.10;2.25;;;;;;;;;;6287585;22;20012;-47
2023/09/15 05:53:17;;;;;;;5.03;2.70;;;;;;;;;;6287293;22;20004;-48
2023/09/15 05:55:44;;;;;;;5.38;2.38;;;;;;;;;;6287494;22;20002;-47
2023/09/15 05:58:10;;;;;;;3.85;2.33;;;;;;;;;;6287187;22;20430;-54
2023/09/15 06:00:37;;;;;;;3.40;2.35;;;;;;;;;;6287194;22;20008;-49
2023/09/15 06:03:04;;;;;;;3.42;2.20;;;;;;;;;;6287238;22;20039;-49
2023/09/15 06:05:30;;;;;;;4.55;2.40;;;;;;;;;;6286674;22;20007;-53
2023/09/15 06:07:57;;;;;;;5.30;2.38;;;;;;;;;;6287150;22;20168;-49
2023/09/15 06:10:24;;;;;;;4.20;2.30;;;;;;;;;;6287273;22;20033;-48
2023/09/15 06:12:50;;;;;;;6.18;2.30;;;;;;;;;;6286976;22;20317;-48
2023/09/15 06:15:18;;;;;;;4.40;2.08;;;;;;;;;;6287215;22;20034;-51
2023/09/15 06:17:44;;;;;;;5.15;2.10;;;;;;;;;;6287082;22;19992;-50
2023/09/15 06:20:11;;;;;;;5.97;2.25;;;;;;;;;;6286733;22;19999;-47
2023/09/15 06:22:38;;;;;;;8.07;2.17;;;;;;;;;;6287003;22;20000;-51
2023/09/15 06:25:05;;;;;;;3.97;2.60;;;;;;;;;;6286957;22;20007;-54
2023/09/15 06:27:35;;;;;;;4.13;2.33;;;;;;;;;;6286870;22;19996;-58
2023/09/15 06:30:03;;;;;;;3.20;2.60;;;;;;;;;;6286810;22;20015;-47
2023/09/15 06:32:30;;;;;;;5.13;2.40;;;;;;;;;;6287018;22;20172;-48
2023/09/15 06:34:57;;;;;;;2.90;2.20;;;;;;;;;;6286331;22;20006;-53
2023/09/15 06:37:24;;;;;;;5.57;2.35;;;;;;;;;;6287038;22;20003;-47
2023/09/15 06:39:51;;;;;;;4.50;2.00;;;;;;;;;;6286990;22;20298;-50
2023/09/15 06:42:18;;;;;;;4.68;2.45;;;;;;;;;;6286781;22;20000;-47
2023/09/15 06:44:44;;;;;;;4.47;2.63;;;;;;;;;;6287067;22;20030;-49
2023/09/15 06:47:11;;;;;;;4.18;2.28;;;;;;;;;;6286845;22;20046;-49
2023/09/15 06:49:38;;;;;;;5.18;2.35;;;;;;;;;;6288318;22;20341;-55
2023/09/15 06:52:06;;;;;;;5.35;2.33;;;;;;;;;;6289599;22;20008;-52
2023/09/15 06:54:32;;;;;;;7.63;2.58;;;;;;;;;;6289108;22;20012;-47
2023/09/15 06:56:59;;;;;;;4.07;2.78;;;;;;;;;;6289397;22;20065;-55
2023/09/15 06:59:26;;;;;;;6.82;3.17;;;;;;;;;;6288866;22;20003;-47
2023/09/15 07:01:52;;;;;;;6.20;3.30;;;;;;;;;;6289109;22;19991;-51
2023/09/15 07:04:19;;;;;;;5.68;3.40;;;;;;;;;;6288672;22;19995;-54
2023/09/15 07:06:45;;;;;;;6.45;3.60;;;;;;;;;;6289336;22;20020;-54
2023/09/15 07:09:12;;;;;;;4.68;3.50;;;;;;;;;;6288361;22;19992;-53
2023/09/15 07:11:39;;;;;;;4.20;3.15;;;;;;;;;;6289067;22;20022;-53
2023/09/15 07:14:05;;;;;;;12.05;3.85;;;;;;;;;;6288771;22;20008;-54
2023/09/15 07:16:32;;;;;;;6.93;3.15;;;;;;;;;;6289273;22;20153;-58
2023/09/15 07:19:00;;;;;;;16.25;3.33;;;;;;;;;;6288574;22;19996;-54
2023/09/15 07:21:26;;;;;;;8.40;2.90;;;;;;;;;;6289207;22;20053;-54
2023/09/15 07:23:54;;;;;;;5.68;3.00;;;;;;;;;;6288720;22;19984;-51
2023/09/15 07:26:24;;;;;;;3.60;2.42;;;;;;;;;;6289057;22;19999;-49
2023/09/15 07:28:51;;;;;;;6.88;2.90;;;;;;;;;;6287658;22;20051;-45
2023/09/15 07:31:19;;;;;;;7.00;2.80;;;;;;;;;;6287421;22;20007;-49
2023/09/15 07:33:47;;;;;;;6.18;2.55;;;;;;;;;;6288375;22;20027;-52
2023/09/15 07:36:13;;;;;;;5.78;2.35;;;;;;;;;;6288919;22;20008;-48
2023/09/15 07:38:40;;;;;;;6.38;2.60;;;;;;;;;;6287608;22;20006;-60
2023/09/15 07:41:07;;;;;;;6.07;2.42;;;;;;;;;;6288064;22;20010;-48
2023/09/15 07:43:33;;;;;;;5.97;2.50;;;;;;;;;;6287991;22;20335;-51
2023/09/15 07:46:00;;;;;;;10.55;2.88;;;;;;;;;;6288775;22;20014;-46
2023/09/15 07:48:29;;;;;;;28.50;4.93;;;;;;;;;;6287237;22;20308;-46
2023/09/15 07:50:56;;;;;;;76.95;9.23;;;;;;;;;;6288701;22;20014;-49
2023/09/15 07:53:23;;;;;;;79.55;10.20;;;;;;;;;;6287924;22;19998;-45
2023/09/15 07:55:50;;;;;;;78.65;10.57;;;;;;;;;;6288339;22;20003;-45
2023/09/15 07:58:16;;;;;;;45.70;6.90;;;;;;;;;;6288411;22;20011;-49
2023/09/15 08:00:43;;;;;;;32.60;5.60;;;;;;;;;;6287922;22;19991;-45
2023/09/15 08:03:10;;;;;;;26.90;4.60;;;;;;;;;;6288249;22;20049;-45
2023/09/15 08:05:36;;;;;;;29.88;4.78;;;;;;;;;;6288625;22;20004;-50
2023/09/15 08:08:03;;;;;;;34.72;5.20;;;;;;;;;;6288136;22;19988;-48
2023/09/15 08:10:30;;;;;;;26.08;5.10;;;;;;;;;;6287013;22;20093;-50
2023/09/15 08:12:56;;;;;;;30.65;6.03;;;;;;;;;;6287663;22;20011;-47
2023/09/15 08:15:23;;;;;;;21.42;4.28;;;;;;;;;;6288159;22;19996;-48
2023/09/15 08:17:50;;;;;;;26.38;4.28;;;;;;;;;;6287217;22;19999;-59
2023/09/15 08:20:17;;;;;;;19.50;3.60;;;;;;;;;;6288011;22;20016;-53
2023/09/15 08:22:44;;;;;;;14.00;3.78;;;;;;;;;;6288204;22;19987;-55
2023/09/15 08:25:11;;;;;;;12.38;3.45;;;;;;;;;;6287652;22;20191;-51
2023/09/15 08:27:38;;;;;;;7.85;3.53;;;;;;;;;;6287514;22;20033;-48
2023/09/15 08:30:08;;;;;;;9.43;3.00;;;;;;;;;;6287908;22;20003;-48
2023/09/15 08:32:35;;;;;;;9.45;2.70;;;;;;;;;;6286899;22;20169;-46
2023/09/15 08:35:03;;;;;;;10.02;3.78;;;;;;;;;;6286849;22;20253;-46
2023/09/15 08:37:30;;;;;;;14.38;5.05;;;;;;;;;;6287234;22;20045;-46
2023/09/15 08:39:56;;;;;;;9.55;4.03;;;;;;;;;;6286957;22;20004;-54
2023/09/15 08:42:30;;;;;;;9.07;3.83;;;;;;;;;;6286532;22;20008;-54
2023/09/15 08:44:58;;;;;;;8.52;3.70;;;;;;;;;;6286653;22;19995;-49
2023/09/15 08:47:27;;;;;;;9.50;3.88;;;;;;;;;;6287820;22;20000;-54
2023/09/15 08:49:54;;;;;;;8.52;3.72;;;;;;;;;;6287840;22;20015;-57
2023/09/15 08:52:21;;;;;;;10.20;3.65;;;;;;;;;;6260803;22;20199;-55
2023/09/15 08:54:49;;;;;;;8.93;3.22;;;;;;;;;;6287746;22;20322;-57
2023/09/15 08:57:16;;;;;;;6.22;2.90;;;;;;;;;;6288319;22;20017;-56
2023/09/15 08:59:43;;;;;;;3.72;2.67;;;;;;;;;;6287786;22;20000;-56
2023/09/15 09:02:11;;;;;;;5.05;2.85;;;;;;;;;;6288246;22;20004;-53
2023/09/15 09:04:37;;;;;;;6.43;3.20;;;;;;;;;;6287670;22;19988;-56
2023/09/15 09:07:05;;;;;;;7.72;2.88;;;;;;;;;;6287714;22;20000;-48
2023/09/15 09:09:31;;;;;;;6.07;2.70;;;;;;;;;;6287585;22;20010;-51
2023/09/15 09:11:58;;;;;;;5.68;2.78;;;;;;;;;;6287121;22;20019;-52
2023/09/15 09:14:25;;;;;;;7.13;2.60;;;;;;;;;;6287655;22;20003;-49
2023/09/15 09:16:52;;;;;;;3.60;2.05;;;;;;;;;;6288030;22;20008;-51
2023/09/15 09:19:19;;;;;;;6.32;2.28;;;;;;;;;;6287447;22;20279;-48
2023/09/15 09:21:46;;;;;;;4.05;2.45;;;;;;;;;;6287751;22;20049;-50
2023/09/15 09:24:14;;;;;;;6.03;2.50;;;;;;;;;;6287241;22;20000;-48
2023/09/15 09:26:41;;;;;;;5.95;2.15;;;;;;;;;;6288078;22;20031;-50
2023/09/15 09:29:08;;;;;;;5.50;2.35;;;;;;;;;;6287398;22;19996;-50
2023/09/15 09:31:34;;;;;;;5.97;2.30;;;;;;;;;;6287776;22;20027;-52
2023/09/15 09:34:02;;;;;;;5.45;2.58;;;;;;;;;;6287276;22;19996;-51
2023/09/15 09:36:29;;;;;;;6.85;3.00;;;;;;;;;;6287936;22;20003;-51
2023/09/15 09:38:55;;;;;;;6.00;2.85;;;;;;;;;;6287302;22;20003;-45
2023/09/15 09:41:28;;;;;;;5.43;2.50;;;;;;;;;;6287757;22;19996;-46
2023/09/15 09:43:55;;;;;;;6.85;2.50;;;;;;;;;;6287456;22;20000;-48
2023/09/15 09:46:22;;;;;;;4.82;2.53;;;;;;;;;;6287562;22;20308;-47
2023/09/15 09:48:50;;;;;;;5.93;2.70;;;;;;;;;;6287307;22;20287;-47
2023/09/15 09:51:17;;;;;;;7.03;2.00;;;;;;;;;;6287596;22;20003;-49
2023/09/15 09:53:44;;;;;;;4.68;2.20;;;;;;;;;;6287152;22;20004;-49
2023/09/15 09:56:11;;;;;;;10.27;3.10;;;;;;;;;;6287533;22;20193;-52
2023/09/15 09:58:38;;;;;;;6.63;2.70;;;;;;;;;;6287203;22;20000;-46
2023/09/15 10:01:06;;;;;;;8.77;2.75;;;;;;;;;;6286726;22;20287;-46
2023/09/15 10:03:33;;;;;;;5.65;2.88;;;;;;;;;;6287306;22;20210;-46
2023/09/15 10:06:00;;;;;;;10.35;2.80;;;;;;;;;;6287366;22;19999;-45
2023/09/15 10:08:27;;;;;;;3.90;2.53;;;;;;;;;;6286987;22;20000;-45
2023/09/15 10:10:54;;;;;;;9.93;2.80;;;;;;;;;;6287440;22;20034;-47
2023/09/15 10:13:22;;;;;;;10.00;3.10;;;;;;;;;;6287217;22;20054;-57
2023/09/15 10:15:49;;;;;;;5.18;3.33;;;;;;;;;;6287233;22;20031;-45
2023/09/15 10:18:17;;;;;;;10.48;3.60;;;;;;;;;;6287080;22;20287;-50
2023/09/15 10:20:44;;;;;;;10.57;3.63;;;;;;;;;;6286642;22;20008;-48
2023/09/15 10:23:15;;;;;;;4.43;2.78;;;;;;;;;;6259479;22;20223;-49
2023/09/15 10:25:42;;;;;;;8.52;2.92;;;;;;;;;;6287174;22;20015;-49
2023/09/15 10:28:10;;;;;;;5.15;2.42;;;;;;;;;;6287074;22;20006;-49
2023/09/15 10:30:37;;;;;;;7.38;2.67;;;;;;;;;;6286389;22;20073;-49
2023/09/15 10:33:04;;;;;;;6.20;2.40;;;;;;;;;;6286840;22;19992;-51
2023/09/15 10:35:33;;;;;;;4.43;2.80;;;;;;;;;;6258004;22;20007;-50
2023/09/15 10:38:03;;;;;;;5.50;2.75;;;;;;;;;;6286557;22;20011;-52
2023/09/15 10:40:42;;;;;;;6.68;3.03;;;;;;;;;;6286249;22;20011;-53
2023/09/15 10:43:09;;;;;;;5.78;3.10;;;;;;;;;;6286445;22;20226;-48
2023/09/15 10:45:36;;;;;;;6.70;2.58;;;;;;;;;;6286620;22;20195;-50
2023/09/15 10:48:04;;;;;;;8.02;3.10;;;;;;;;;;6286203;22;19987;-53
2023/09/15 10:50:32;;;;;;;6.35;2.58;;;;;;;;;;6286593;22;20219;-48
2023/09/15 10:53:07;;;;;;;6.88;2.80;;;;;;;;;;6286133;22;20291;-52
2023/09/15 10:55:34;;;;;;;5.85;3.17;;;;;;;;;;6286768;22;20059;-48
2023/09/15 10:58:01;;;;;;;6.05;3.30;;;;;;;;;;6286709;22;20004;-48
2023/09/15 11:00:28;;;;;;;7.20;2.97;;;;;;;;;;6286937;22;19995;-51
2023/09/15 11:02:55;;;;;;;9.30;3.60;;;;;;;;;;6286491;22;20222;-57
2023/09/15 11:05:22;;;;;;;9.10;3.00;;;;;;;;;;6286745;22;20008;-54
2023/09/15 11:07:49;;;;;;;9.25;3.75;;;;;;;;;;6285619;22;20073;-55
2023/09/15 11:10:16;;;;;;;12.55;3.80;;;;;;;;;;6284930;22;20484;-55
2023/09/15 11:12:42;;;;;;;8.93;3.58;;;;;;;;;;6284742;22;20004;-55
2023/09/15 11:15:10;;;;;;;12.30;4.28;;;;;;;;;;6284794;22;19999;-52
2023/09/15 11:17:37;;;;;;;18.38;6.00;;;;;;;;;;6284827;22;20006;-53
2023/09/15 11:20:05;;;;;;;10.88;4.57;;;;;;;;;;6284460;22;20004;-52
2023/09/15 11:22:35;;;;;;;8.55;3.60;;;;;;;;;;6284320;22;20012;-54
2023/09/15 11:25:02;;;;;;;15.10;4.45;;;;;;;;;;6286772;22;20291;-56
2023/09/15 11:27:33;;;;;;;13.80;3.60;;;;;;;;;;6286535;22;20006;-52
2023/09/15 11:30:03;;;;;;;41.53;4.50;;;;;;;;;;6286495;22;20015;-55
2023/09/15 11:32:30;;;;;;;11.52;3.40;;;;;;;;;;6286861;22;20006;-53
2023/09/15 11:34:57;;;;;;;20.52;3.58;;;;;;;;;;6287955;22;20010;-55
2023/09/15 11:37:24;;;;;;;13.00;3.25;;;;;;;;;;6287646;22;20315;-53
2023/09/15 11:39:51;;;;;;;11.65;2.90;;;;;;;;;;6286397;22;20046;-52
2023/09/15 11:42:18;;;;;;;20.23;3.08;;;;;;;;;;6286417;22;20183;-55
2023/09/15 11:44:44;;;;;;;28.35;3.95;;;;;;;;;;6286391;22;20192;-53
2023/09/15 11:47:12;;;;;;;8.32;3.03;;;;;;;;;;6287001;22;20003;-52
2023/09/15 11:49:39;;;;;;;7.63;2.83;;;;;;;;;;6286309;22;20003;-51
2023/09/15 11:52:06;;;;;;;8.90;3.05;;;;;;;;;;6287294;22;20003;-54
2023/09/15 11:54:32;;;;;;;9.90;3.00;;;;;;;;;;6288433;22;20225;-55
2023/09/15 11:56:59;;;;;;;11.65;2.65;;;;;;;;;;6288700;22;20292;-55
2023/09/15 11:59:26;;;;;;;10.43;3.40;;;;;;;;;;6288331;22;20004;-53
2023/09/15 12:01:54;;;;;;;7.20;2.80;;;;;;;;;;6288920;22;19991;-53
2023/09/15 12:04:21;;;;;;;8.95;3.33;;;;;;;;;;6288171;22;20000;-54
2023/09/15 12:06:49;;;;;;;10.05;3.13;;;;;;;;;;6288895;22;19999;-52
2023/09/15 12:09:17;;;;;;;14.50;3.53;;;;;;;;;;6288340;22;19992;-53
2023/09/15 12:11:45;;;;;;;7.47;3.05;;;;;;;;;;6288549;22;20219;-53
2023/09/15 12:14:15;;;;;;;10.93;3.13;;;;;;;;;;6288211;22;19996;-53
2023/09/15 12:16:48;;;;;;;8.35;2.72;;;;;;;;;;6288720;22;20053;-53
2023/09/15 12:19:19;;;;;;;4.85;2.30;;;;;;;;;;6288093;22;19995;-53
2023/09/15 12:21:52;;;;;;;4.65;2.20;;;;;;;;;;6288796;22;20051;-56
2023/09/15 12:24:20;;;;;;;6.78;2.30;;;;;;;;;;6287997;22;20334;-56
2023/09/15 12:26:47;;;;;;;7.35;2.40;;;;;;;;;;6288676;22;20037;-53
2023/09/15 12:29:16;;;;;;;13.27;2.97;;;;;;;;;;6287950;22;20000;-54
2023/09/15 12:31:47;;;;;;;7.30;2.85;;;;;;;;;;6288266;22;20011;-53
2023/09/15 12:34:20;;;;;;;12.85;2.97;;;;;;;;;;6287837;22;19992;-54
2023/09/15 12:36:47;;;;;;;12.35;2.90;;;;;;;;;;6288410;22;20003;-55
2023/09/15 12:39:15;;;;;;;9.90;2.30;;;;;;;;;;6288004;22;19995;-55
2023/09/15 12:41:43;;;;;;;8.38;2.95;;;;;;;;;;6288485;22;20042;-55
2023/09/15 12:44:10;;;;;;;10.65;2.97;;;;;;;;;;6287766;22;19995;-53
2023/09/15 12:46:37;;;;;;;14.52;3.03;;;;;;;;;;6287930;22;19999;-54
2023/09/15 12:49:04;;;;;;;11.52;2.97;;;;;;;;;;6288034;22;20110;-57
2023/09/15 12:51:30;;;;;;;12.57;2.92;;;;;;;;;;6287978;22;20014;-55
2023/09/15 12:53:57;;;;;;;12.15;2.78;;;;;;;;;;6287727;22;19999;-58
2023/09/15 12:56:25;;;;;;;9.60;2.67;;;;;;;;;;6288323;22;20185;-53
2023/09/15 12:58:51;;;;;;;13.48;2.88;;;;;;;;;;6287550;22;20010;-52
2023/09/15 13:01:18;;;;;;;10.75;2.78;;;;;;;;;;6288075;22;20302;-52
2023/09/15 13:03:44;;;;;;;9.73;2.47;;;;;;;;;;6287873;22;20000;-54
2023/09/15 13:06:11;;;;;;;12.45;3.03;;;;;;;;;;6288041;22;19999;-50
2023/09/15 13:08:38;;;;;;;7.20;2.47;;;;;;;;;;6287679;22;19995;-55
2023/09/15 13:11:04;;;;;;;8.32;3.13;;;;;;;;;;6288017;22;20173;-52
2023/09/15 13:13:31;;;;;;;7.22;2.95;;;;;;;;;;6287576;22;20138;-53
2023/09/15 13:15:57;;;;;;;10.52;3.28;;;;;;;;;;6287574;22;20000;-52
2023/09/15 13:18:25;;;;;;;9.60;3.38;;;;;;;;;;6287744;22;20004;-55
2023/09/15 13:20:52;;;;;;;6.22;2.85;;;;;;;;;;6287492;22;20034;-55
2023/09/15 13:23:19;;;;;;;9.10;2.80;;;;;;;;;;6287432;22;19992;-56
2023/09/15 13:25:45;;;;;;;4.35;2.97;;;;;;;;;;6287876;22;20004;-58
2023/09/15 13:28:12;;;;;;;6.90;2.55;;;;;;;;;;6287351;22;20000;-54
2023/09/15 13:30:39;;;;;;;3.63;2.88;;;;;;;;;;6287214;22;20012;-53
2023/09/15 13:33:06;;;;;;;8.30;2.55;;;;;;;;;;6287271;22;20007;-54
2023/09/15 13:35:33;;;;;;;4.50;2.65;;;;;;;;;;6287480;22;20053;-54
2023/09/15 13:38:01;;;;;;;7.80;2.75;;;;;;;;;;6287052;22;19995;-55
2023/09/15 13:40:28;;;;;;;8.02;2.63;;;;;;;;;;6287269;22;20169;-54
2023/09/15 13:42:54;;;;;;;6.28;3.03;;;;;;;;;;6287478;22;20011;-55
2023/09/15 13:45:21;;;;;;;5.05;2.33;;;;;;;;;;6287099;22;20000;-55
2023/09/15 13:47:48;;;;;;;3.60;2.53;;;;;;;;;;6287489;22;20006;-56
2023/09/15 13:50:14;;;;;;;3.45;2.58;;;;;;;;;;6287175;22;20015;-54
2023/09/15 13:52:41;;;;;;;6.38;2.45;;;;;;;;;;6287176;22;20230;-54
2023/09/15 13:55:08;;;;;;;4.80;2.80;;;;;;;;;;6287075;22;20227;-55
2023/09/15 13:57:38;;;;;;;6.55;2.72;;;;;;;;;;6286903;22;20026;-54
2023/09/15 14:00:05;;;;;;;6.03;2.58;;;;;;;;;;6286663;22;20007;-54
2023/09/15 14:02:33;;;;;;;6.25;3.05;;;;;;;;;;6287046;22;20384;-53
2023/09/15 14:05:02;;;;;;;4.93;3.08;;;;;;;;;;6286986;22;20025;-55
2023/09/15 14:07:30;;;;;;;6.72;3.00;;;;;;;;;;6286833;22;20038;-54
2023/09/15 14:09:57;;;;;;;5.90;2.85;;;;;;;;;;6286927;22;20011;-54
2023/09/15 14:12:24;;;;;;;6.60;2.97;;;;;;;;;;6287108;22;20050;-52
2023/09/15 14:14:50;;;;;;;5.75;2.72;;;;;;;;;;6286833;22;20035;-54
2023/09/15 14:17:17;;;;;;;8.50;2.85;;;;;;;;;;6287256;22;20011;-54
2023/09/15 14:19:44;;;;;;;6.20;2.10;;;;;;;;;;6286752;22;20227;-53
2023/09/15 14:22:11;;;;;;;5.40;2.88;;;;;;;;;;6287280;22;20218;-54
2023/09/15 14:24:39;;;;;;;5.53;2.53;;;;;;;;;;6287140;22;20022;-56
2023/09/15 14:27:06;;;;;;;3.28;2.53;;;;;;;;;;6287631;22;20192;-53
2023/09/15 14:29:33;;;;;;;6.22;2.80;;;;;;;;;;6286873;22;20188;-53
2023/09/15 14:32:06;;;;;;;6.28;3.20;;;;;;;;;;6287533;22;20008;-53
2023/09/15 14:34:32;;;;;;;5.18;3.40;;;;;;;;;;6286790;22;20271;-54
2023/09/15 14:37:00;;;;;;;5.70;3.13;;;;;;;;;;6287196;22;20023;-55
2023/09/15 14:39:27;;;;;;;3.28;2.80;;;;;;;;;;6286960;22;19988;-56